Time,TemperatureF,DewpointF,PressureIn,WindDirection,WindDirectionDegrees,WindSpeedMPH,WindSpeedGustMPH,Humidity,HourlyPrecipIn,Conditions,Clouds,dailyrainin,SoftwareType,DateUTC
2013-07-29 00:01:00,64.7,52.3,27.99,South,173,1.6,2.0,64,0.00,,,0.00,WSDL version 420,2013-07-29 04:01:00,
2013-07-29 00:06:00,64.8,52.5,27.99,SW,225,0.0,2.2,64,-99.99,,,-99.99,WSDL version 420,2013-07-29 04:06:00,
2013-07-29 00:12:00,64.8,52.7,27.99,WSW,248,0.0,2.2,65,0.00,,,0.00,WSDL version 420,2013-07-29 04:12:00,
2013-07-29 00:16:00,64.6,52.6,27.99,WSW,248,0.0,0.0,65,-99.99,,,-99.99,WSDL version 420,2013-07-29 04:16:00,
2013-07-29 00:22:00,64.1,52.1,27.99,WSW,248,0.0,0.0,65,-99.99,,,-99.99,WSDL version 420,2013-07-29 04:22:00,
2013-07-29 00:31:00,63.9,52.0,27.99,WSW,248,0.0,0.0,66,-99.99,,,-99.99,WSDL version 420,2013-07-29 04:31:00,
2013-07-29 00:36:00,63.7,52.1,27.99,WSW,248,0.0,0.0,66,-99.99,,,-99.99,WSDL version 420,2013-07-29 04:36:00,
2013-07-29 00:41:00,63.5,52.0,27.99,WSW,248,0.0,0.0,66,0.00,,,0.00,WSDL version 420,2013-07-29 04:41:00,
2013-07-29 00:46:00,63.6,52.1,27.99,WSW,248,0.0,0.0,66,-99.99,,,-99.99,WSDL version 420,2013-07-29 04:46:00,
2013-07-29 00:51:00,63.6,52.1,27.99,SW,231,0.0,0.0,66,-99.99,,,-99.99,WSDL version 420,2013-07-29 04:51:00,
2013-07-29 00:56:00,63.4,52.1,27.99,SW,225,0.0,0.0,67,0.00,,,0.00,WSDL version 420,2013-07-29 04:56:00,
2013-07-29 01:01:00,63.2,51.7,27.99,WSW,248,0.0,0.0,66,0.00,,,0.00,WSDL version 420,2013-07-29 05:01:00,
2013-07-29 01:06:00,63.1,52.0,27.99,WSW,248,0.0,0.0,67,0.00,,,0.00,WSDL version 420,2013-07-29 05:06:00,
2013-07-29 01:11:00,63.0,51.9,27.99,WSW,248,0.0,0.0,67,-99.99,,,-99.99,WSDL version 420,2013-07-29 05:11:00,
2013-07-29 01:16:00,62.9,51.8,27.99,WSW,248,0.0,0.0,67,0.00,,,0.00,WSDL version 420,2013-07-29 05:16:00,
2013-07-29 01:21:00,62.6,51.5,27.99,WSW,248,0.0,0.0,67,-99.99,,,-99.99,WSDL version 420,2013-07-29 05:21:00,
2013-07-29 01:26:00,62.5,51.4,27.99,WSW,248,0.0,0.0,67,0.00,,,0.00,WSDL version 420,2013-07-29 05:26:00,
2013-07-29 01:36:00,62.3,51.6,27.99,WSW,248,0.0,0.0,68,-99.99,,,-99.99,WSDL version 420,2013-07-29 05:36:00,
2013-07-29 01:41:00,61.9,51.3,27.99,WSW,248,0.0,0.0,68,-99.99,,,-99.99,WSDL version 420,2013-07-29 05:41:00,
2013-07-29 01:46:00,61.8,51.6,27.99,WSW,248,0.0,0.0,69,-99.99,,,-99.99,WSDL version 420,2013-07-29 05:46:00,
2013-07-29 01:51:00,61.8,51.5,27.99,WSW,248,0.0,0.0,69,-99.99,,,-99.99,WSDL version 420,2013-07-29 05:51:00,
2013-07-29 02:01:00,61.6,51.4,27.99,WSW,248,0.0,0.0,69,-99.99,,,-99.99,WSDL version 420,2013-07-29 06:01:00,
2013-07-29 02:06:00,61.7,51.4,27.99,WSW,248,0.0,0.0,69,-99.99,,,-99.99,WSDL version 420,2013-07-29 06:06:00,
2013-07-29 02:11:00,61.6,51.3,27.99,WSW,248,0.0,0.0,69,0.00,,,0.00,WSDL version 420,2013-07-29 06:11:00,
2013-07-29 02:21:00,61.3,51.1,27.99,WSW,248,0.0,0.0,69,0.00,,,0.00,WSDL version 420,2013-07-29 06:21:00,
2013-07-29 02:31:00,60.9,50.7,27.99,WSW,248,0.0,0.0,69,-99.99,,,-99.99,WSDL version 420,2013-07-29 06:31:00,
2013-07-29 02:41:00,60.6,50.8,27.99,WSW,248,0.0,0.0,70,-99.99,,,-99.99,WSDL version 420,2013-07-29 06:41:00,
2013-07-29 02:46:00,60.6,50.8,27.99,WSW,248,0.0,0.0,70,0.00,,,0.00,WSDL version 420,2013-07-29 06:46:00,
2013-07-29 02:51:00,60.5,50.7,27.99,WSW,248,0.0,0.0,70,-99.99,,,-99.99,WSDL version 420,2013-07-29 06:51:00,
2013-07-29 03:01:00,60.6,50.9,27.99,WSW,248,0.0,0.0,71,-99.99,,,-99.99,WSDL version 420,2013-07-29 07:01:00,
2013-07-29 03:07:00,60.4,50.9,27.99,WSW,248,0.0,0.0,70,0.00,,,0.00,WSDL version 420,2013-07-29 07:07:00,
2013-07-29 03:16:00,59.9,50.1,27.99,WSW,248,0.0,0.0,70,0.00,,,0.00,WSDL version 420,2013-07-29 07:16:00,
2013-07-29 03:21:00,60.0,50.6,27.99,WSW,248,0.0,0.0,71,0.00,,,0.00,WSDL version 420,2013-07-29 07:21:00,
2013-07-29 03:31:00,60.0,50.5,27.99,WSW,248,0.0,0.0,71,0.00,,,0.00,WSDL version 420,2013-07-29 07:31:00,
2013-07-29 03:41:00,59.8,50.4,27.99,WSW,248,0.0,0.0,71,0.00,,,0.00,WSDL version 420,2013-07-29 07:41:00,
2013-07-29 03:46:00,59.7,50.4,27.99,WSW,248,0.0,0.0,72,0.00,,,0.00,WSDL version 420,2013-07-29 07:46:00,
2013-07-29 03:51:00,59.5,50.1,27.99,WSW,248,0.0,0.0,71,0.00,,,0.00,WSDL version 420,2013-07-29 07:51:00,
2013-07-29 03:56:00,59.6,50.3,27.99,WSW,248,0.0,0.0,72,0.00,,,0.00,WSDL version 420,2013-07-29 07:56:00,
2013-07-29 04:01:00,59.5,50.1,27.99,WSW,248,0.0,0.0,71,0.00,,,0.00,WSDL version 420,2013-07-29 08:01:00,
2013-07-29 04:06:00,59.5,50.2,27.99,WSW,248,0.0,0.0,72,0.00,,,0.00,WSDL version 420,2013-07-29 08:06:00,
2013-07-29 04:11:00,59.4,50.1,27.99,WSW,248,0.0,0.0,71,0.00,,,0.00,WSDL version 420,2013-07-29 08:11:00,
2013-07-29 04:16:00,59.4,50.1,27.99,WSW,248,0.0,0.0,71,0.00,,,0.00,WSDL version 420,2013-07-29 08:16:00,
2013-07-29 04:26:00,59.2,50.2,27.99,WSW,248,0.0,0.0,72,0.00,,,0.00,WSDL version 420,2013-07-29 08:26:00,
2013-07-29 04:31:00,58.9,49.9,27.99,WSW,248,0.0,0.0,72,0.00,,,0.00,WSDL version 420,2013-07-29 08:31:00,
2013-07-29 04:36:00,58.9,49.9,27.99,WSW,248,0.0,0.0,72,0.00,,,0.00,WSDL version 420,2013-07-29 08:36:00,
2013-07-29 04:42:00,59.2,50.2,27.99,WSW,248,0.0,0.0,72,0.00,,,0.00,WSDL version 420,2013-07-29 08:42:00,
2013-07-29 04:51:00,59.0,50.0,27.99,WSW,248,0.0,0.0,72,0.00,,,0.00,WSDL version 420,2013-07-29 08:51:00,
2013-07-29 04:57:00,58.8,49.8,27.99,WSW,248,0.0,0.0,72,0.00,,,0.00,WSDL version 420,2013-07-29 08:57:00,
2013-07-29 05:06:00,58.8,50.1,27.99,WSW,248,0.0,0.0,72,0.00,,,0.00,WSDL version 420,2013-07-29 09:06:00,
2013-07-29 05:12:00,58.8,50.1,27.99,WSW,248,0.0,0.0,73,0.00,,,0.00,WSDL version 420,2013-07-29 09:12:00,
2013-07-29 05:21:00,58.6,50.0,28.02,WSW,248,0.0,0.0,73,0.00,,,0.00,WSDL version 420,2013-07-29 09:21:00,
2013-07-29 05:26:00,58.8,50.2,28.02,WSW,248,0.0,0.0,73,0.00,,,0.00,WSDL version 420,2013-07-29 09:26:00,
2013-07-29 05:31:00,58.7,50.1,28.02,WSW,248,0.0,0.0,73,0.00,,,0.00,WSDL version 420,2013-07-29 09:31:00,
2013-07-29 05:36:00,58.6,50.0,28.02,WSW,248,0.0,0.0,73,0.00,,,0.00,WSDL version 420,2013-07-29 09:36:00,
2013-07-29 05:41:00,58.5,49.9,28.02,WSW,248,0.0,0.0,73,0.00,,,0.00,WSDL version 420,2013-07-29 09:41:00,
2013-07-29 05:51:00,58.6,50.0,28.02,WSW,248,0.0,0.0,73,0.00,,,0.00,WSDL version 420,2013-07-29 09:51:00,
2013-07-29 06:01:00,58.5,49.8,28.02,WSW,248,0.0,0.0,73,0.00,,,0.00,WSDL version 420,2013-07-29 10:01:00,
2013-07-29 06:06:00,58.3,49.7,28.02,WSW,248,0.0,0.0,73,0.00,,,0.00,WSDL version 420,2013-07-29 10:06:00,
2013-07-29 06:14:00,58.2,49.6,28.02,WSW,248,0.0,0.0,73,0.00,,,0.00,WSDL version 420,2013-07-29 10:14:00,
2013-07-29 06:23:00,58.0,49.4,28.02,WSW,248,0.0,0.0,73,0.00,,,0.00,WSDL version 420,2013-07-29 10:23:00,
2013-07-29 06:28:00,58.0,49.4,28.02,WSW,248,0.0,0.0,73,0.00,,,0.00,WSDL version 420,2013-07-29 10:28:00,
2013-07-29 06:33:00,58.1,49.6,28.02,WSW,248,0.0,0.0,74,0.00,,,0.00,WSDL version 420,2013-07-29 10:33:00,
2013-07-29 06:38:00,58.0,49.6,28.02,WSW,248,0.0,0.0,73,0.00,,,0.00,WSDL version 420,2013-07-29 10:38:00,
2013-07-29 06:43:00,57.7,49.1,28.02,WSW,248,0.0,0.0,73,0.00,,,0.00,WSDL version 420,2013-07-29 10:43:00,
2013-07-29 06:48:00,57.7,49.5,28.02,WSW,248,0.0,0.0,74,0.00,,,0.00,WSDL version 420,2013-07-29 10:48:00,
2013-07-29 06:53:00,57.8,49.6,28.02,WSW,248,0.0,0.0,74,0.00,,,0.00,WSDL version 420,2013-07-29 10:53:00,
2013-07-29 06:58:00,57.7,49.5,28.02,WSW,248,0.0,0.0,74,0.00,,,0.00,WSDL version 420,2013-07-29 10:58:00,
2013-07-29 07:03:00,57.6,49.3,28.02,WSW,248,0.0,0.0,74,0.00,,,0.00,WSDL version 420,2013-07-29 11:03:00,
2013-07-29 07:08:00,57.4,49.2,28.02,WSW,248,0.0,0.0,74,0.00,,,0.00,WSDL version 420,2013-07-29 11:08:00,
2013-07-29 07:13:00,57.6,49.3,28.02,WSW,248,0.0,0.0,74,0.00,,,0.00,WSDL version 420,2013-07-29 11:13:00,
2013-07-29 07:18:00,57.5,49.3,28.02,WSW,248,0.0,0.0,74,0.00,,,0.00,WSDL version 420,2013-07-29 11:18:00,
2013-07-29 07:23:00,57.6,49.3,28.02,WSW,248,0.0,0.0,74,0.00,,,0.00,WSDL version 420,2013-07-29 11:23:00,
2013-07-29 07:28:00,57.7,49.9,28.02,WSW,248,0.0,0.0,75,-99.99,,,-99.99,WSDL version 420,2013-07-29 11:28:00,
2013-07-29 07:33:00,58.0,50.1,28.02,WSW,248,0.0,0.0,75,0.00,,,0.00,WSDL version 420,2013-07-29 11:33:00,
2013-07-29 07:38:00,57.9,49.9,28.02,WSW,248,0.0,0.0,75,-99.99,,,-99.99,WSDL version 420,2013-07-29 11:38:00,
2013-07-29 07:43:00,58.0,50.1,28.02,WSW,248,0.0,0.0,75,0.00,,,0.00,WSDL version 420,2013-07-29 11:43:00,
2013-07-29 07:48:00,58.2,50.7,28.02,WSW,248,0.0,0.0,76,0.00,,,0.00,WSDL version 420,2013-07-29 11:48:00,
2013-07-29 07:53:00,58.5,50.9,28.05,WSW,248,0.0,0.0,76,0.00,,,0.00,WSDL version 420,2013-07-29 11:53:00,
2013-07-29 07:58:00,58.6,51.3,28.05,WSW,248,0.0,0.0,77,0.00,,,0.00,WSDL version 420,2013-07-29 11:58:00,
2013-07-29 08:03:00,58.8,51.6,28.05,WSW,248,0.0,0.0,77,0.00,,,0.00,WSDL version 420,2013-07-29 12:03:00,
2013-07-29 08:09:00,59.1,51.9,28.02,WSW,248,0.0,0.0,77,0.00,,,0.00,WSDL version 420,2013-07-29 12:09:00,
2013-07-29 08:18:00,59.5,52.6,28.02,WSW,248,0.0,0.0,78,0.00,,,0.00,WSDL version 420,2013-07-29 12:18:00,
2013-07-29 08:23:00,59.7,52.9,28.05,WSW,248,0.0,0.0,78,0.00,,,0.00,WSDL version 420,2013-07-29 12:23:00,
2013-07-29 08:28:00,60.0,53.4,28.05,WSW,248,0.0,0.0,79,0.00,,,0.00,WSDL version 420,2013-07-29 12:28:00,
2013-07-29 08:34:00,60.2,53.7,28.05,WSW,248,0.0,0.0,79,0.00,,,0.00,WSDL version 420,2013-07-29 12:34:00,
2013-07-29 08:43:00,60.6,54.0,28.05,WSW,248,0.0,0.0,79,0.00,,,0.00,WSDL version 420,2013-07-29 12:43:00,
2013-07-29 08:48:00,60.7,54.2,28.05,North,8,0.0,0.0,79,0.00,,,0.00,WSDL version 420,2013-07-29 12:48:00,
2013-07-29 08:53:00,61.0,54.4,28.05,ENE,68,0.0,0.0,79,0.00,,,0.00,WSDL version 420,2013-07-29 12:53:00,
2013-07-29 08:58:00,61.1,54.5,28.05,NE,45,0.0,0.0,79,0.00,,,0.00,WSDL version 420,2013-07-29 12:58:00,
2013-07-29 09:05:00,61.4,54.9,28.05,NE,45,0.0,0.0,79,0.00,,,0.00,WSDL version 420,2013-07-29 13:05:00,
2013-07-29 09:10:00,61.9,55.0,28.05,NE,45,0.0,0.0,78,0.00,,,0.00,WSDL version 420,2013-07-29 13:10:00,
2013-07-29 09:15:00,62.1,54.8,28.05,WSW,248,0.0,0.0,77,0.00,,,0.00,WSDL version 420,2013-07-29 13:15:00,
2013-07-29 09:20:00,62.1,54.8,28.05,WSW,248,0.0,0.0,77,0.00,,,0.00,WSDL version 420,2013-07-29 13:20:00,
2013-07-29 09:25:00,62.2,54.7,28.05,SSE,158,0.0,0.0,76,0.00,,,0.00,WSDL version 420,2013-07-29 13:25:00,
2013-07-29 09:30:00,62.5,54.6,28.05,NNE,30,0.0,0.0,75,0.00,,,0.00,WSDL version 420,2013-07-29 13:30:00,
2013-07-29 09:35:00,62.8,54.7,28.05,NE,45,0.0,0.0,74,0.00,,,0.00,WSDL version 420,2013-07-29 13:35:00,
2013-07-29 09:45:00,63.3,54.2,28.05,WNW,293,0.3,1.1,72,0.00,,,0.00,WSDL version 420,2013-07-29 13:45:00,
2013-07-29 09:50:00,63.3,53.8,28.05,WNW,293,0.0,1.1,71,0.00,,,0.00,WSDL version 420,2013-07-29 13:50:00,
2013-07-29 09:55:00,63.5,53.9,28.05,WNW,293,0.0,0.0,71,0.00,,,0.00,WSDL version 420,2013-07-29 13:55:00,
2013-07-29 10:00:00,63.6,54.0,28.05,WNW,293,0.0,0.0,71,0.00,,,0.00,WSDL version 420,2013-07-29 14:00:00,
2013-07-29 10:05:00,63.9,54.2,28.05,WNW,293,0.7,1.1,70,0.00,,,0.00,WSDL version 420,2013-07-29 14:05:00,
2013-07-29 10:10:00,64.4,54.4,28.05,WNW,293,0.0,1.1,70,0.00,,,0.00,WSDL version 420,2013-07-29 14:10:00,
2013-07-29 10:15:00,64.8,54.4,28.05,North,5,0.0,0.0,69,0.00,,,0.00,WSDL version 420,2013-07-29 14:15:00,
2013-07-29 10:22:00,64.8,53.7,28.05,North,360,0.0,0.0,67,0.00,,,0.00,WSDL version 420,2013-07-29 14:22:00,
2013-07-29 10:27:00,64.9,53.5,28.05,WSW,248,0.6,1.1,66,0.00,,,0.00,WSDL version 420,2013-07-29 14:27:00,
2013-07-29 10:32:00,65.2,53.3,28.05,SSE,163,0.7,1.1,65,0.00,,,0.00,WSDL version 420,2013-07-29 14:32:00,
2013-07-29 10:37:00,65.5,53.5,28.05,SSE,152,1.6,2.5,65,0.00,,,0.00,WSDL version 420,2013-07-29 14:37:00,
2013-07-29 10:42:00,65.8,53.4,28.05,NNE,30,1.0,2.5,64,0.00,,,0.00,WSDL version 420,2013-07-29 14:42:00,
2013-07-29 10:49:00,65.9,53.0,28.05,NE,53,1.5,2.2,63,0.00,,,0.00,WSDL version 420,2013-07-29 14:49:00,
2013-07-29 10:59:00,66.7,52.8,28.05,NW,315,0.0,2.2,61,0.00,,,0.00,WSDL version 420,2013-07-29 14:59:00,
2013-07-29 11:09:00,67.4,53.5,28.05,West,270,0.0,1.1,61,0.00,,,0.00,WSDL version 420,2013-07-29 15:09:00,
2013-07-29 11:19:00,67.3,52.8,28.05,West,270,0.0,0.0,59,0.00,,,0.00,WSDL version 420,2013-07-29 15:19:00,
2013-07-29 11:24:00,67.6,53.0,28.05,WNW,293,0.0,0.0,60,0.00,,,0.00,WSDL version 420,2013-07-29 15:24:00,
2013-07-29 11:30:00,68.1,53.0,28.05,NW,323,1.4,1.6,58,0.00,,,0.00,WSDL version 420,2013-07-29 15:30:00,
2013-07-29 11:35:00,67.9,52.1,28.08,NNE,28,0.7,2.7,57,-99.99,,,-99.99,WSDL version 420,2013-07-29 15:35:00,
2013-07-29 11:41:00,68.2,52.5,28.08,WNW,293,1.3,2.7,57,-99.99,,,-99.99,WSDL version 420,2013-07-29 15:41:00,
2013-07-29 11:50:00,68.7,52.7,28.05,NW,308,1.3,3.1,57,0.00,,,0.00,WSDL version 420,2013-07-29 15:50:00,
2013-07-29 11:55:00,68.9,52.1,28.05,NW,315,1.3,2.7,55,0.00,,,0.00,WSDL version 420,2013-07-29 15:55:00,
2013-07-29 12:00:00,69.3,52.8,28.05,SSE,158,0.0,2.7,56,0.00,,,0.00,WSDL version 420,2013-07-29 16:00:00,
2013-07-29 12:07:00,69.7,53.1,28.05,NW,315,0.9,1.3,55,-99.99,,,-99.99,WSDL version 420,2013-07-29 16:07:00,
2013-07-29 12:12:00,69.9,53.0,28.08,West,270,1.2,1.3,55,-99.99,,,-99.99,WSDL version 420,2013-07-29 16:12:00,
2013-07-29 12:17:00,69.7,52.3,28.08,West,281,1.5,1.6,54,0.00,,,0.00,WSDL version 420,2013-07-29 16:17:00,
2013-07-29 12:22:00,69.2,51.3,28.08,West,276,0.4,1.6,53,0.00,,,0.00,WSDL version 420,2013-07-29 16:22:00,
2013-07-29 12:27:00,69.6,51.9,28.08,NNE,23,2.5,2.5,52,0.00,,,0.00,WSDL version 420,2013-07-29 16:27:00,
2013-07-29 12:32:00,70.0,51.3,28.08,West,263,2.8,2.9,52,0.00,,,0.00,WSDL version 420,2013-07-29 16:32:00,
2013-07-29 12:37:00,70.6,52.4,28.05,West,270,2.8,3.8,52,0.00,,,0.00,WSDL version 420,2013-07-29 16:37:00,
2013-07-29 12:42:00,70.2,51.1,28.05,WNW,293,1.0,3.8,51,0.00,,,0.00,WSDL version 420,2013-07-29 16:42:00,
2013-07-29 12:47:00,70.0,50.8,28.05,NE,53,1.6,2.5,50,0.00,,,0.00,WSDL version 420,2013-07-29 16:47:00,
2013-07-29 12:52:00,70.6,51.1,28.08,ESE,120,2.8,2.9,50,0.00,,,0.00,WSDL version 420,2013-07-29 16:52:00,
2013-07-29 12:57:00,71.2,51.7,28.08,South,191,1.7,3.1,50,0.00,,,0.00,WSDL version 420,2013-07-29 16:57:00,
2013-07-29 13:02:00,71.4,51.0,28.08,SE,128,1.8,3.1,48,0.00,,,0.00,WSDL version 420,2013-07-29 17:02:00,
2013-07-29 13:12:00,72.0,50.8,28.05,NE,45,1.3,2.9,46,0.00,,,0.00,WSDL version 420,2013-07-29 17:12:00,
2013-07-29 13:17:00,72.0,50.1,28.05,North,349,2.0,2.5,46,0.00,,,0.00,WSDL version 420,2013-07-29 17:17:00,
2013-07-29 13:22:00,72.3,50.6,28.05,SE,128,1.9,3.1,46,-99.99,,,-99.99,WSDL version 420,2013-07-29 17:22:00,
2013-07-29 13:32:00,72.6,50.3,28.05,NW,315,0.9,2.9,45,0.00,,,0.00,WSDL version 420,2013-07-29 17:32:00,
2013-07-29 13:41:00,73.1,49.9,28.05,NW,323,0.0,2.7,43,0.00,,,0.00,WSDL version 420,2013-07-29 17:41:00,
2013-07-29 13:46:00,73.3,50.1,28.05,West,278,1.4,2.2,44,0.00,,,0.00,WSDL version 420,2013-07-29 17:46:00,
2013-07-29 13:51:00,73.5,50.1,28.05,SSE,158,0.3,2.9,43,0.00,,,0.00,WSDL version 420,2013-07-29 17:51:00,
2013-07-29 13:56:00,73.7,50.4,28.05,NW,326,0.9,2.9,44,0.00,,,0.00,WSDL version 420,2013-07-29 17:56:00,
2013-07-29 14:06:00,73.7,50.3,28.05,WNW,300,2.2,2.7,44,0.00,,,0.00,WSDL version 420,2013-07-29 18:06:00,
2013-07-29 14:16:00,73.9,50.6,28.05,WNW,293,2.6,3.4,44,0.00,,,0.00,WSDL version 420,2013-07-29 18:16:00,
2013-07-29 14:23:00,74.2,50.3,28.05,NNW,345,0.7,2.9,42,0.00,,,0.00,WSDL version 420,2013-07-29 18:23:00,
2013-07-29 14:28:00,74.5,50.8,28.05,WSW,248,2.4,3.1,43,0.00,,,0.00,WSDL version 420,2013-07-29 18:28:00,
2013-07-29 14:33:00,74.6,50.0,28.05,WNW,284,2.2,5.6,42,-99.99,,,-99.99,WSDL version 420,2013-07-29 18:33:00,
2013-07-29 14:38:00,74.5,50.2,28.05,ESE,105,2.2,5.6,43,0.00,,,0.00,WSDL version 420,2013-07-29 18:38:00,
2013-07-29 14:43:00,74.7,50.3,28.05,ENE,68,3.1,3.6,42,0.00,,,0.00,WSDL version 420,2013-07-29 18:43:00,
2013-07-29 14:48:00,75.0,50.2,28.05,NW,308,1.8,3.6,41,0.00,,,0.00,WSDL version 420,2013-07-29 18:48:00,
2013-07-29 14:53:00,75.4,50.3,28.05,South,180,2.6,3.1,41,0.00,,,0.00,WSDL version 420,2013-07-29 18:53:00,
2013-07-29 15:03:00,75.5,49.8,28.05,ENE,62,1.6,2.9,40,0.00,,,0.00,WSDL version 420,2013-07-29 19:03:00,
2013-07-29 15:08:00,75.6,50.2,28.05,NNE,15,1.0,3.4,41,0.00,,,0.00,WSDL version 420,2013-07-29 19:08:00,
2013-07-29 15:18:00,75.9,50.1,28.05,WNW,293,2.1,3.4,40,0.00,,,0.00,WSDL version 420,2013-07-29 19:18:00,
2013-07-29 15:23:00,76.1,50.1,28.05,WNW,293,0.7,2.7,40,-99.99,,,-99.99,WSDL version 420,2013-07-29 19:23:00,
2013-07-29 15:28:00,76.5,49.9,28.05,SW,218,2.5,2.7,40,0.00,,,0.00,WSDL version 420,2013-07-29 19:28:00,
2013-07-29 15:33:00,76.6,50.2,28.05,ESE,120,1.0,2.7,39,0.00,,,0.00,WSDL version 420,2013-07-29 19:33:00,
2013-07-29 15:38:00,76.8,50.6,28.05,South,191,0.7,3.4,40,0.00,,,0.00,WSDL version 420,2013-07-29 19:38:00,
2013-07-29 15:43:00,77.0,50.4,28.05,SE,128,2.6,3.4,39,-99.99,,,-99.99,WSDL version 420,2013-07-29 19:43:00,
2013-07-29 15:48:00,76.6,49.3,28.05,WSW,248,1.7,2.9,38,0.00,,,0.00,WSDL version 420,2013-07-29 19:48:00,
2013-07-29 15:53:00,76.8,49.7,28.05,NNW,330,2.1,2.5,39,0.00,,,0.00,WSDL version 420,2013-07-29 19:53:00,
2013-07-29 15:58:00,76.9,50.1,28.05,North,8,2.5,3.4,39,0.00,,,0.00,WSDL version 420,2013-07-29 19:58:00,
2013-07-29 16:03:00,76.9,48.9,28.05,NNW,338,0.7,3.4,36,-99.99,,,-99.99,WSDL version 420,2013-07-29 20:03:00,
2013-07-29 16:08:00,76.6,47.4,28.05,NNW,338,2.5,3.4,35,0.00,,,0.00,WSDL version 420,2013-07-29 20:08:00,
2013-07-29 16:13:00,76.5,48.0,28.05,NW,326,2.1,3.1,37,0.00,,,0.00,WSDL version 420,2013-07-29 20:13:00,
2013-07-29 16:18:00,76.6,48.1,28.05,NNE,30,1.0,3.1,36,0.00,,,0.00,WSDL version 420,2013-07-29 20:18:00,
2013-07-29 16:23:00,76.6,48.4,28.05,NNE,23,1.7,2.5,38,-99.99,,,-99.99,WSDL version 420,2013-07-29 20:23:00,
2013-07-29 16:28:00,77.0,49.1,28.05,WNW,284,2.5,2.9,37,0.00,,,0.00,WSDL version 420,2013-07-29 20:28:00,
2013-07-29 16:33:00,77.2,48.6,28.05,SW,218,1.9,2.9,36,0.00,,,0.00,WSDL version 420,2013-07-29 20:33:00,
2013-07-29 16:38:00,77.2,47.9,28.05,East,83,0.0,2.0,35,0.00,,,0.00,WSDL version 420,2013-07-29 20:38:00,
2013-07-29 16:43:00,77.4,48.6,28.05,NNE,23,2.5,2.9,36,-99.99,,,-99.99,WSDL version 420,2013-07-29 20:43:00,
2013-07-29 16:48:00,76.8,47.4,28.05,WSW,248,1.4,2.9,36,-99.99,,,-99.99,WSDL version 420,2013-07-29 20:48:00,
2013-07-29 16:58:00,76.4,46.2,28.05,NNE,23,1.6,3.1,34,-99.99,,,-99.99,WSDL version 420,2013-07-29 20:58:00,
2013-07-29 17:03:00,76.4,46.4,28.05,West,270,2.2,2.7,35,0.00,,,0.00,WSDL version 420,2013-07-29 21:03:00,
2013-07-29 17:08:00,76.6,47.7,28.05,WNW,293,1.1,2.7,36,-99.99,,,-99.99,WSDL version 420,2013-07-29 21:08:00,
2013-07-29 17:13:00,76.8,47.6,28.05,South,173,0.7,2.7,36,-99.99,,,-99.99,WSDL version 420,2013-07-29 21:13:00,
2013-07-29 17:18:00,76.9,47.7,28.05,NNE,23,1.5,2.7,35,-99.99,,,-99.99,WSDL version 420,2013-07-29 21:18:00,
2013-07-29 17:23:00,76.9,47.9,28.05,SSW,203,0.9,2.0,36,0.00,,,0.00,WSDL version 420,2013-07-29 21:23:00,
2013-07-29 17:35:00,77.2,47.9,28.05,West,263,2.5,3.4,36,0.00,,,0.00,WSDL version 420,2013-07-29 21:35:00,
2013-07-29 17:40:00,77.2,47.7,28.05,NE,38,1.9,3.4,35,0.00,,,0.00,WSDL version 420,2013-07-29 21:40:00,
2013-07-29 17:45:00,77.2,47.4,28.05,NE,45,1.1,3.4,35,-99.99,,,-99.99,WSDL version 420,2013-07-29 21:45:00,
2013-07-29 17:50:00,77.1,48.1,28.05,NE,56,1.5,2.2,36,0.00,,,0.00,WSDL version 420,2013-07-29 21:50:00,
2013-07-29 17:55:00,76.6,47.7,28.05,NE,45,0.7,2.2,36,-99.99,,,-99.99,WSDL version 420,2013-07-29 21:55:00,
2013-07-29 18:02:00,76.2,47.3,28.05,NE,53,0.5,2.0,36,-99.99,,,-99.99,WSDL version 420,2013-07-29 22:02:00,
2013-07-29 18:07:00,76.2,47.8,28.05,NE,53,1.6,2.7,36,0.00,,,0.00,WSDL version 420,2013-07-29 22:07:00,
2013-07-29 18:12:00,76.1,47.2,28.05,West,259,2.9,3.1,36,0.00,,,0.00,WSDL version 420,2013-07-29 22:12:00,
2013-07-29 18:17:00,76.1,47.5,28.05,NW,304,1.5,3.1,36,-99.99,,,-99.99,WSDL version 420,2013-07-29 22:17:00,
2013-07-29 18:22:00,76.1,48.0,28.05,ENE,60,0.0,3.1,37,-99.99,,,-99.99,WSDL version 420,2013-07-29 22:22:00,
2013-07-29 18:32:00,75.9,47.0,28.05,NE,53,1.9,2.9,36,-99.99,,,-99.99,WSDL version 420,2013-07-29 22:32:00,
2013-07-29 18:37:00,75.7,47.2,28.05,ENE,75,1.7,2.9,36,-99.99,,,-99.99,WSDL version 420,2013-07-29 22:37:00,
2013-07-29 18:47:00,75.3,46.6,28.05,ENE,68,0.9,2.9,36,-99.99,,,-99.99,WSDL version 420,2013-07-29 22:47:00,
2013-07-29 18:52:00,75.2,46.7,28.05,East,83,0.9,2.0,37,-99.99,,,-99.99,WSDL version 420,2013-07-29 22:52:00,
2013-07-29 18:57:00,75.1,47.4,28.05,NE,38,1.0,2.5,38,-99.99,,,-99.99,WSDL version 420,2013-07-29 22:57:00,
2013-07-29 19:02:00,74.9,46.9,28.05,NE,45,0.4,2.5,37,-99.99,,,-99.99,WSDL version 420,2013-07-29 23:02:00,
2013-07-29 19:07:00,74.7,46.9,28.08,NE,38,0.0,1.1,38,-99.99,,,-99.99,WSDL version 420,2013-07-29 23:07:00,
2013-07-29 19:12:00,74.7,47.4,28.08,North,11,0.3,1.1,38,-99.99,,,-99.99,WSDL version 420,2013-07-29 23:12:00,
2013-07-29 19:17:00,74.5,47.0,28.08,NNE,30,0.0,1.1,38,-99.99,,,-99.99,WSDL version 420,2013-07-29 23:17:00,
2013-07-29 19:22:00,74.5,47.2,28.08,East,90,0.0,1.6,38,-99.99,,,-99.99,WSDL version 420,2013-07-29 23:22:00,
2013-07-29 19:27:00,74.5,47.9,28.08,NE,34,0.0,1.6,39,-99.99,,,-99.99,WSDL version 420,2013-07-29 23:27:00,
2013-07-29 19:32:00,74.4,47.8,28.08,NNE,30,0.3,1.3,39,-99.99,,,-99.99,WSDL version 420,2013-07-29 23:32:00,
2013-07-29 19:37:00,74.1,48.1,28.08,NNW,332,0.6,1.3,40,-99.99,,,-99.99,WSDL version 420,2013-07-29 23:37:00,
2013-07-29 19:42:00,74.1,48.6,28.08,North,8,0.0,1.1,41,-99.99,,,-99.99,WSDL version 420,2013-07-29 23:42:00,
2013-07-29 19:47:00,74.0,48.8,28.08,South,174,0.0,0.9,41,-99.99,,,-99.99,WSDL version 420,2013-07-29 23:47:00,
2013-07-29 19:52:00,73.7,48.6,28.08,SSW,195,1.0,1.3,41,-99.99,,,-99.99,WSDL version 420,2013-07-29 23:52:00,
2013-07-29 19:57:00,73.3,49.0,28.08,East,90,0.7,1.3,43,-99.99,,,-99.99,WSDL version 420,2013-07-29 23:57:00,
2013-07-29 20:02:00,72.9,49.3,28.08,SSW,203,0.4,1.1,44,-99.99,,,-99.99,WSDL version 420,2013-07-30 00:02:00,
2013-07-29 20:07:00,72.6,49.4,28.08,South,173,0.0,1.1,44,-99.99,,,-99.99,WSDL version 420,2013-07-30 00:07:00,
2013-07-29 20:12:00,72.4,49.7,28.08,SW,218,0.0,0.9,45,-99.99,,,-99.99,WSDL version 420,2013-07-30 00:12:00,
2013-07-29 20:22:00,72.0,50.1,28.08,WSW,248,0.0,0.0,46,-99.99,,,-99.99,WSDL version 420,2013-07-30 00:22:00,
2013-07-29 20:32:00,71.4,50.7,28.08,ESE,118,0.0,0.0,48,-99.99,,,-99.99,WSDL version 420,2013-07-30 00:32:00,
2013-07-29 20:37:00,71.1,51.0,28.08,SE,146,0.0,0.0,49,-99.99,,,-99.99,WSDL version 420,2013-07-30 00:37:00,
2013-07-29 20:42:00,70.8,50.7,28.08,SE,143,0.0,0.0,49,-99.99,,,-99.99,WSDL version 420,2013-07-30 00:42:00,
2013-07-29 20:47:00,70.5,50.6,28.08,ENE,68,0.0,1.6,49,-99.99,,,-99.99,WSDL version 420,2013-07-30 00:47:00,
2013-07-29 20:57:00,69.5,50.4,28.08,SE,135,0.8,1.3,51,0.00,,,0.00,WSDL version 420,2013-07-30 00:57:00,
2013-07-29 21:07:00,68.8,50.5,28.08,ESE,113,0.0,1.1,52,0.00,,,0.00,WSDL version 420,2013-07-30 01:07:00,
2013-07-29 21:12:00,68.7,50.4,28.08,SSE,158,0.0,0.0,52,0.00,,,0.00,WSDL version 420,2013-07-30 01:12:00,
2013-07-29 21:22:00,68.2,50.5,28.11,East,101,0.6,1.1,53,-99.99,,,-99.99,WSDL version 420,2013-07-30 01:22:00,
2013-07-29 21:27:00,68.0,50.8,28.11,SE,128,1.2,1.3,54,-99.99,,,-99.99,WSDL version 420,2013-07-30 01:27:00,
2013-07-29 21:37:00,68.0,50.6,28.11,ENE,75,0.0,0.9,54,-99.99,,,-99.99,WSDL version 420,2013-07-30 01:37:00,
2013-07-29 21:47:00,67.5,50.3,28.11,ENE,68,0.0,0.0,54,-99.99,,,-99.99,WSDL version 420,2013-07-30 01:47:00,
2013-07-29 21:57:00,67.1,50.4,28.11,ENE,68,0.0,0.0,55,-99.99,,,-99.99,WSDL version 420,2013-07-30 01:57:00,
2013-07-29 22:02:00,67.1,50.1,28.11,ENE,68,0.0,0.0,54,0.00,,,0.00,WSDL version 420,2013-07-30 02:02:00,
2013-07-29 22:12:00,66.9,50.2,28.14,NNW,345,0.3,0.9,55,0.00,,,0.00,WSDL version 420,2013-07-30 02:12:00,
2013-07-29 22:22:00,66.7,50.0,28.14,ESE,107,1.3,2.0,55,0.00,,,0.00,WSDL version 420,2013-07-30 02:22:00,
2013-07-29 22:27:00,66.3,49.8,28.14,NNE,23,0.0,2.0,56,0.00,,,0.00,WSDL version 420,2013-07-30 02:27:00,
2013-07-29 22:37:00,66.3,49.6,28.14,East,90,0.0,0.0,55,0.00,,,0.00,WSDL version 420,2013-07-30 02:37:00,
2013-07-29 22:47:00,66.0,50.1,28.14,ENE,75,0.0,0.0,56,0.00,,,0.00,WSDL version 420,2013-07-30 02:47:00,
2013-07-29 22:52:00,66.0,50.1,28.14,NNE,23,0.0,0.0,57,0.00,,,0.00,WSDL version 420,2013-07-30 02:52:00,
2013-07-29 23:02:00,65.7,50.1,28.14,NNE,23,0.0,0.0,57,0.00,,,0.00,WSDL version 420,2013-07-30 03:02:00,
2013-07-29 23:07:00,65.5,50.4,28.14,NNE,23,0.0,0.0,58,0.00,,,0.00,WSDL version 420,2013-07-30 03:07:00,
2013-07-29 23:12:00,65.4,50.5,28.14,NNE,23,0.0,0.0,59,0.00,,,0.00,WSDL version 420,2013-07-30 03:12:00,
2013-07-29 23:22:00,64.9,50.2,28.14,NNE,23,0.7,1.1,59,0.00,,,0.00,WSDL version 420,2013-07-30 03:22:00,
2013-07-29 23:32:00,64.8,50.1,28.14,SE,135,0.0,0.0,59,0.00,,,0.00,WSDL version 420,2013-07-30 03:32:00,
2013-07-29 23:37:00,64.6,49.9,28.14,ESE,120,0.0,0.0,59,0.00,,,0.00,WSDL version 420,2013-07-30 03:37:00,
2013-07-29 23:42:00,64.3,49.9,28.14,ESE,113,0.0,0.0,60,0.00,,,0.00,WSDL version 420,2013-07-30 03:42:00,
2013-07-29 23:47:00,64.0,49.9,28.14,ESE,113,0.0,0.0,60,0.00,,,0.00,WSDL version 420,2013-07-30 03:47:00,
2013-07-29 23:57:00,63.8,49.8,28.14,ESE,113,0.0,0.0,61,0.00,,,0.00,WSDL version 420,2013-07-30 03:57:00,